sensor_id;sensor_type;location;lat;lon;timestamp;P1;durP1;ratioP1;P2;durP2;ratioP2
63050;SDS011;49136;47.416;19.402;2023-04-29T00:00:20;15.75;;;7.15;;
63050;SDS011;49136;47.416;19.402;2023-04-29T00:02:46;14.25;;;6.18;;
63050;SDS011;49136;47.416;19.402;2023-04-29T00:05:12;18.08;;;6.90;;
63050;SDS011;49136;47.416;19.402;2023-04-29T00:07:37;26.85;;;7.82;;
63050;SDS011;49136;47.416;19.402;2023-04-29T00:10:03;18.70;;;6.47;;
63050;SDS011;49136;47.416;19.402;2023-04-29T00:12:29;12.52;;;6.32;;
63050;SDS011;49136;47.416;19.402;2023-04-29T00:14:56;14.07;;;6.97;;
63050;SDS011;49136;47.416;19.402;2023-04-29T00:17:21;12.05;;;6.25;;
63050;SDS011;49136;47.416;19.402;2023-04-29T00:19:47;20.25;;;6.82;;
63050;SDS011;49136;47.416;19.402;2023-04-29T00:22:12;13.32;;;6.20;;
63050;SDS011;49136;47.416;19.402;2023-04-29T00:24:38;19.33;;;7.15;;
63050;SDS011;49136;47.416;19.402;2023-04-29T00:27:03;13.13;;;6.25;;
63050;SDS011;49136;47.416;19.402;2023-04-29T00:29:29;18.25;;;8.43;;
63050;SDS011;49136;47.416;19.402;2023-04-29T00:31:55;17.42;;;9.68;;
63050;SDS011;49136;47.416;19.402;2023-04-29T00:34:20;24.35;;;9.27;;
63050;SDS011;49136;47.416;19.402;2023-04-29T00:36:46;17.65;;;10.18;;
63050;SDS011;49136;47.416;19.402;2023-04-29T00:39:12;26.42;;;10.77;;
63050;SDS011;49136;47.416;19.402;2023-04-29T00:41:37;22.10;;;9.95;;
63050;SDS011;49136;47.416;19.402;2023-04-29T00:44:03;21.60;;;10.20;;
63050;SDS011;49136;47.416;19.402;2023-04-29T00:46:28;23.63;;;11.25;;
63050;SDS011;49136;47.416;19.402;2023-04-29T00:48:54;23.10;;;9.90;;
63050;SDS011;49136;47.416;19.402;2023-04-29T00:51:20;22.63;;;9.18;;
63050;SDS011;49136;47.416;19.402;2023-04-29T00:53:45;18.52;;;9.15;;
63050;SDS011;49136;47.416;19.402;2023-04-29T00:56:11;25.55;;;10.38;;
63050;SDS011;49136;47.416;19.402;2023-04-29T00:58:39;21.42;;;10.05;;
63050;SDS011;49136;47.416;19.402;2023-04-29T01:01:04;28.33;;;8.70;;
63050;SDS011;49136;47.416;19.402;2023-04-29T01:03:32;15.13;;;8.60;;
63050;SDS011;49136;47.416;19.402;2023-04-29T01:08:58;20.77;;;10.27;;
63050;SDS011;49136;47.416;19.402;2023-04-29T01:11:27;20.95;;;9.15;;
63050;SDS011;49136;47.416;19.402;2023-04-29T01:13:59;26.85;;;8.82;;
63050;SDS011;49136;47.416;19.402;2023-04-29T01:16:37;18.55;;;9.05;;
63050;SDS011;49136;47.416;19.402;2023-04-29T01:19:37;26.63;;;8.50;;
63050;SDS011;49136;47.416;19.402;2023-04-29T01:22:14;19.80;;;8.00;;
63050;SDS011;49136;47.416;19.402;2023-04-29T01:24:41;22.30;;;8.45;;
63050;SDS011;49136;47.416;19.402;2023-04-29T01:27:13;14.45;;;7.47;;
63050;SDS011;49136;47.416;19.402;2023-04-29T01:33:02;20.63;;;7.43;;
63050;SDS011;49136;47.416;19.402;2023-04-29T01:38:25;13.68;;;7.15;;
63050;SDS011;49136;47.416;19.402;2023-04-29T01:43:42;23.00;;;8.15;;
63050;SDS011;49136;47.416;19.402;2023-04-29T01:46:14;13.10;;;7.18;;
63050;SDS011;49136;47.416;19.402;2023-04-29T01:48:41;20.50;;;8.70;;
63050;SDS011;49136;47.416;19.402;2023-04-29T01:51:07;19.70;;;9.32;;
63050;SDS011;49136;47.416;19.402;2023-04-29T01:53:33;18.77;;;9.20;;
63050;SDS011;49136;47.416;19.402;2023-04-29T01:55:58;18.27;;;7.97;;
63050;SDS011;49136;47.416;19.402;2023-04-29T01:58:23;16.23;;;7.90;;
63050;SDS011;49136;47.416;19.402;2023-04-29T02:00:49;17.52;;;8.20;;
63050;SDS011;49136;47.416;19.402;2023-04-29T02:03:15;16.70;;;8.38;;
63050;SDS011;49136;47.416;19.402;2023-04-29T02:05:41;15.57;;;7.57;;
63050;SDS011;49136;47.416;19.402;2023-04-29T02:08:07;20.85;;;8.10;;
63050;SDS011;49136;47.416;19.402;2023-04-29T02:10:32;14.27;;;7.88;;
63050;SDS011;49136;47.416;19.402;2023-04-29T02:12:58;18.60;;;7.82;;
63050;SDS011;49136;47.416;19.402;2023-04-29T02:15:25;17.75;;;8.15;;
63050;SDS011;49136;47.416;19.402;2023-04-29T02:17:52;18.92;;;8.45;;
63050;SDS011;49136;47.416;19.402;2023-04-29T02:20:18;13.45;;;6.78;;
63050;SDS011;49136;47.416;19.402;2023-04-29T02:22:43;16.80;;;8.20;;
63050;SDS011;49136;47.416;19.402;2023-04-29T02:25:09;30.35;;;8.93;;
63050;SDS011;49136;47.416;19.402;2023-04-29T02:27:35;17.52;;;8.18;;
63050;SDS011;49136;47.416;19.402;2023-04-29T02:30:00;18.10;;;9.05;;
63050;SDS011;49136;47.416;19.402;2023-04-29T02:32:26;25.65;;;8.48;;
63050;SDS011;49136;47.416;19.402;2023-04-29T02:34:52;18.23;;;8.48;;
63050;SDS011;49136;47.416;19.402;2023-04-29T02:37:17;20.55;;;8.25;;
63050;SDS011;49136;47.416;19.402;2023-04-29T02:39:43;13.40;;;7.88;;
63050;SDS011;49136;47.416;19.402;2023-04-29T02:42:08;20.95;;;8.90;;
63050;SDS011;49136;47.416;19.402;2023-04-29T02:44:35;19.10;;;8.60;;
63050;SDS011;49136;47.416;19.402;2023-04-29T02:47:00;16.95;;;8.25;;
63050;SDS011;49136;47.416;19.402;2023-04-29T02:49:26;18.77;;;8.57;;
63050;SDS011;49136;47.416;19.402;2023-04-29T02:51:51;16.48;;;8.10;;
63050;SDS011;49136;47.416;19.402;2023-04-29T02:54:17;16.88;;;8.25;;
63050;SDS011;49136;47.416;19.402;2023-04-29T02:56:42;15.02;;;8.95;;
63050;SDS011;49136;47.416;19.402;2023-04-29T02:59:08;22.02;;;9.02;;
63050;SDS011;49136;47.416;19.402;2023-04-29T03:01:34;16.48;;;7.97;;
63050;SDS011;49136;47.416;19.402;2023-04-29T03:03:59;17.83;;;8.35;;
63050;SDS011;49136;47.416;19.402;2023-04-29T03:06:25;21.85;;;9.77;;
63050;SDS011;49136;47.416;19.402;2023-04-29T03:08:51;17.55;;;8.57;;
63050;SDS011;49136;47.416;19.402;2023-04-29T03:11:18;16.98;;;8.60;;
63050;SDS011;49136;47.416;19.402;2023-04-29T03:13:43;19.65;;;8.75;;
63050;SDS011;49136;47.416;19.402;2023-04-29T03:16:10;21.77;;;8.65;;
63050;SDS011;49136;47.416;19.402;2023-04-29T03:18:37;18.92;;;8.95;;
63050;SDS011;49136;47.416;19.402;2023-04-29T03:21:03;19.35;;;9.07;;
63050;SDS011;49136;47.416;19.402;2023-04-29T03:23:28;26.92;;;9.63;;
63050;SDS011;49136;47.416;19.402;2023-04-29T03:25:54;19.05;;;8.55;;
63050;SDS011;49136;47.416;19.402;2023-04-29T03:28:20;22.00;;;9.68;;
63050;SDS011;49136;47.416;19.402;2023-04-29T03:30:45;20.10;;;9.07;;
63050;SDS011;49136;47.416;19.402;2023-04-29T03:33:10;18.88;;;9.10;;
63050;SDS011;49136;47.416;19.402;2023-04-29T03:35:36;16.83;;;8.63;;
63050;SDS011;49136;47.416;19.402;2023-04-29T03:38:01;19.48;;;8.43;;
63050;SDS011;49136;47.416;19.402;2023-04-29T03:40:27;20.02;;;9.07;;
63050;SDS011;49136;47.416;19.402;2023-04-29T03:42:53;22.67;;;8.20;;
63050;SDS011;49136;47.416;19.402;2023-04-29T03:45:18;17.30;;;7.80;;
63050;SDS011;49136;47.416;19.402;2023-04-29T03:47:44;19.90;;;8.27;;
63050;SDS011;49136;47.416;19.402;2023-04-29T03:50:09;22.30;;;8.82;;
63050;SDS011;49136;47.416;19.402;2023-04-29T03:52:35;17.30;;;8.10;;
63050;SDS011;49136;47.416;19.402;2023-04-29T03:55:01;17.58;;;8.73;;
63050;SDS011;49136;47.416;19.402;2023-04-29T03:57:27;16.08;;;8.45;;
63050;SDS011;49136;47.416;19.402;2023-04-29T03:59:53;17.40;;;8.32;;
63050;SDS011;49136;47.416;19.402;2023-04-29T04:02:18;19.55;;;8.60;;
63050;SDS011;49136;47.416;19.402;2023-04-29T04:04:43;17.15;;;8.13;;
63050;SDS011;49136;47.416;19.402;2023-04-29T04:07:09;20.63;;;8.73;;
63050;SDS011;49136;47.416;19.402;2023-04-29T04:09:35;15.90;;;7.10;;
63050;SDS011;49136;47.416;19.402;2023-04-29T04:12:01;18.98;;;8.38;;
63050;SDS011;49136;47.416;19.402;2023-04-29T04:14:27;19.35;;;8.52;;
63050;SDS011;49136;47.416;19.402;2023-04-29T04:16:53;15.65;;;7.30;;
63050;SDS011;49136;47.416;19.402;2023-04-29T04:19:19;21.30;;;7.70;;
63050;SDS011;49136;47.416;19.402;2023-04-29T04:21:44;17.85;;;7.80;;
63050;SDS011;49136;47.416;19.402;2023-04-29T04:24:10;15.68;;;7.65;;
63050;SDS011;49136;47.416;19.402;2023-04-29T04:26:35;14.02;;;7.20;;
63050;SDS011;49136;47.416;19.402;2023-04-29T04:29:00;19.23;;;7.90;;
63050;SDS011;49136;47.416;19.402;2023-04-29T04:31:26;15.85;;;8.27;;
63050;SDS011;49136;47.416;19.402;2023-04-29T04:33:52;17.52;;;8.13;;
63050;SDS011;49136;47.416;19.402;2023-04-29T04:36:18;14.88;;;8.15;;
63050;SDS011;49136;47.416;19.402;2023-04-29T04:38:43;15.13;;;8.02;;
63050;SDS011;49136;47.416;19.402;2023-04-29T04:41:08;19.02;;;8.43;;
63050;SDS011;49136;47.416;19.402;2023-04-29T04:43:34;15.27;;;8.30;;
63050;SDS011;49136;47.416;19.402;2023-04-29T04:45:59;18.67;;;8.88;;
63050;SDS011;49136;47.416;19.402;2023-04-29T04:48:25;16.75;;;8.50;;
63050;SDS011;49136;47.416;19.402;2023-04-29T04:50:51;22.08;;;8.98;;
63050;SDS011;49136;47.416;19.402;2023-04-29T04:53:16;14.15;;;7.82;;
63050;SDS011;49136;47.416;19.402;2023-04-29T04:55:41;26.83;;;8.23;;
63050;SDS011;49136;47.416;19.402;2023-04-29T04:58:07;16.13;;;8.38;;
63050;SDS011;49136;47.416;19.402;2023-04-29T05:00:32;15.23;;;8.57;;
63050;SDS011;49136;47.416;19.402;2023-04-29T05:02:58;14.98;;;6.82;;
63050;SDS011;49136;47.416;19.402;2023-04-29T05:05:23;20.45;;;8.07;;
63050;SDS011;49136;47.416;19.402;2023-04-29T05:07:49;17.08;;;8.05;;
63050;SDS011;49136;47.416;19.402;2023-04-29T05:10:15;18.02;;;8.13;;
63050;SDS011;49136;47.416;19.402;2023-04-29T05:12:41;20.05;;;8.05;;
63050;SDS011;49136;47.416;19.402;2023-04-29T05:15:06;18.52;;;8.93;;
63050;SDS011;49136;47.416;19.402;2023-04-29T05:17:32;16.25;;;8.07;;
63050;SDS011;49136;47.416;19.402;2023-04-29T05:20:00;20.60;;;8.27;;
63050;SDS011;49136;47.416;19.402;2023-04-29T05:22:25;17.65;;;8.40;;
63050;SDS011;49136;47.416;19.402;2023-04-29T05:24:51;20.95;;;8.25;;
63050;SDS011;49136;47.416;19.402;2023-04-29T05:27:18;19.38;;;8.45;;
63050;SDS011;49136;47.416;19.402;2023-04-29T05:29:43;15.85;;;7.53;;
63050;SDS011;49136;47.416;19.402;2023-04-29T05:32:08;19.30;;;9.40;;
63050;SDS011;49136;47.416;19.402;2023-04-29T05:34:34;19.75;;;9.27;;
63050;SDS011;49136;47.416;19.402;2023-04-29T05:37:00;21.67;;;9.90;;
63050;SDS011;49136;47.416;19.402;2023-04-29T05:39:25;17.20;;;7.85;;
63050;SDS011;49136;47.416;19.402;2023-04-29T05:41:51;14.02;;;7.82;;
63050;SDS011;49136;47.416;19.402;2023-04-29T05:44:16;18.15;;;8.30;;
63050;SDS011;49136;47.416;19.402;2023-04-29T05:46:41;16.27;;;8.25;;
63050;SDS011;49136;47.416;19.402;2023-04-29T05:49:07;21.55;;;8.95;;
63050;SDS011;49136;47.416;19.402;2023-04-29T05:51:32;19.38;;;8.20;;
63050;SDS011;49136;47.416;19.402;2023-04-29T05:53:58;21.70;;;10.48;;
63050;SDS011;49136;47.416;19.402;2023-04-29T05:56:24;19.08;;;9.18;;
63050;SDS011;49136;47.416;19.402;2023-04-29T05:58:49;17.42;;;8.80;;
63050;SDS011;49136;47.416;19.402;2023-04-29T06:01:15;18.13;;;8.27;;
63050;SDS011;49136;47.416;19.402;2023-04-29T06:03:44;13.13;;;7.53;;
63050;SDS011;49136;47.416;19.402;2023-04-29T06:06:09;16.25;;;8.00;;
63050;SDS011;49136;47.416;19.402;2023-04-29T06:08:36;14.15;;;8.10;;
63050;SDS011;49136;47.416;19.402;2023-04-29T06:11:01;18.17;;;8.27;;
63050;SDS011;49136;47.416;19.402;2023-04-29T06:13:29;17.27;;;7.60;;
63050;SDS011;49136;47.416;19.402;2023-04-29T06:15:55;23.50;;;8.68;;
63050;SDS011;49136;47.416;19.402;2023-04-29T06:18:21;18.73;;;8.07;;
63050;SDS011;49136;47.416;19.402;2023-04-29T06:20:47;20.75;;;8.98;;
63050;SDS011;49136;47.416;19.402;2023-04-29T06:23:12;14.65;;;8.60;;
63050;SDS011;49136;47.416;19.402;2023-04-29T06:25:38;14.98;;;7.88;;
63050;SDS011;49136;47.416;19.402;2023-04-29T06:28:04;17.55;;;7.72;;
63050;SDS011;49136;47.416;19.402;2023-04-29T06:30:32;19.40;;;8.10;;
63050;SDS011;49136;47.416;19.402;2023-04-29T06:32:57;24.98;;;10.15;;
63050;SDS011;49136;47.416;19.402;2023-04-29T06:35:23;17.88;;;8.68;;
63050;SDS011;49136;47.416;19.402;2023-04-29T06:37:48;21.85;;;9.15;;
63050;SDS011;49136;47.416;19.402;2023-04-29T06:40:14;22.08;;;9.00;;
63050;SDS011;49136;47.416;19.402;2023-04-29T06:42:40;13.50;;;7.63;;
63050;SDS011;49136;47.416;19.402;2023-04-29T06:45:07;12.57;;;6.95;;
63050;SDS011;49136;47.416;19.402;2023-04-29T06:47:33;15.13;;;8.80;;
63050;SDS011;49136;47.416;19.402;2023-04-29T06:49:58;16.65;;;7.93;;
63050;SDS011;49136;47.416;19.402;2023-04-29T06:52:24;15.90;;;8.43;;
63050;SDS011;49136;47.416;19.402;2023-04-29T06:54:49;30.90;;;8.93;;
63050;SDS011;49136;47.416;19.402;2023-04-29T06:57:15;22.40;;;9.52;;
63050;SDS011;49136;47.416;19.402;2023-04-29T06:59:41;14.85;;;8.35;;
63050;SDS011;49136;47.416;19.402;2023-04-29T07:02:06;18.88;;;9.57;;
63050;SDS011;49136;47.416;19.402;2023-04-29T07:04:32;25.60;;;10.95;;
63050;SDS011;49136;47.416;19.402;2023-04-29T07:06:57;16.13;;;9.23;;
63050;SDS011;49136;47.416;19.402;2023-04-29T07:09:24;16.33;;;7.72;;
63050;SDS011;49136;47.416;19.402;2023-04-29T07:11:51;20.45;;;8.38;;
63050;SDS011;49136;47.416;19.402;2023-04-29T07:14:17;25.23;;;9.68;;
63050;SDS011;49136;47.416;19.402;2023-04-29T07:16:42;23.75;;;10.05;;
63050;SDS011;49136;47.416;19.402;2023-04-29T07:19:08;29.23;;;14.23;;
63050;SDS011;49136;47.416;19.402;2023-04-29T07:21:33;25.23;;;10.73;;
63050;SDS011;49136;47.416;19.402;2023-04-29T07:24:00;22.45;;;9.55;;
63050;SDS011;49136;47.416;19.402;2023-04-29T07:26:26;40.10;;;17.05;;
63050;SDS011;49136;47.416;19.402;2023-04-29T07:28:52;20.63;;;9.90;;
63050;SDS011;49136;47.416;19.402;2023-04-29T07:31:18;26.70;;;10.93;;
63050;SDS011;49136;47.416;19.402;2023-04-29T07:33:44;21.70;;;10.27;;
63050;SDS011;49136;47.416;19.402;2023-04-29T07:36:10;25.05;;;10.27;;
63050;SDS011;49136;47.416;19.402;2023-04-29T07:38:37;21.13;;;9.32;;
63050;SDS011;49136;47.416;19.402;2023-04-29T07:41:02;18.30;;;8.15;;
63050;SDS011;49136;47.416;19.402;2023-04-29T07:43:28;16.98;;;8.35;;
63050;SDS011;49136;47.416;19.402;2023-04-29T07:45:54;18.77;;;10.32;;
63050;SDS011;49136;47.416;19.402;2023-04-29T07:48:19;15.68;;;8.23;;
63050;SDS011;49136;47.416;19.402;2023-04-29T07:50:45;22.80;;;8.65;;
63050;SDS011;49136;47.416;19.402;2023-04-29T07:53:10;19.15;;;9.63;;
63050;SDS011;49136;47.416;19.402;2023-04-29T07:55:36;17.27;;;9.77;;
63050;SDS011;49136;47.416;19.402;2023-04-29T07:58:02;16.40;;;8.07;;
63050;SDS011;49136;47.416;19.402;2023-04-29T08:00:27;19.63;;;9.32;;
63050;SDS011;49136;47.416;19.402;2023-04-29T08:02:53;20.70;;;8.40;;
63050;SDS011;49136;47.416;19.402;2023-04-29T08:05:20;21.95;;;10.38;;
63050;SDS011;49136;47.416;19.402;2023-04-29T08:07:46;18.13;;;8.70;;
63050;SDS011;49136;47.416;19.402;2023-04-29T08:10:15;17.25;;;8.23;;
63050;SDS011;49136;47.416;19.402;2023-04-29T08:12:44;16.33;;;7.57;;
63050;SDS011;49136;47.416;19.402;2023-04-29T08:15:10;13.88;;;7.97;;
63050;SDS011;49136;47.416;19.402;2023-04-29T08:17:35;23.15;;;7.20;;
63050;SDS011;49136;47.416;19.402;2023-04-29T08:20:01;22.92;;;8.65;;
63050;SDS011;49136;47.416;19.402;2023-04-29T08:22:27;17.95;;;7.50;;
63050;SDS011;49136;47.416;19.402;2023-04-29T08:24:52;20.85;;;7.45;;
63050;SDS011;49136;47.416;19.402;2023-04-29T08:27:17;24.05;;;7.47;;
63050;SDS011;49136;47.416;19.402;2023-04-29T08:29:44;14.73;;;7.30;;
63050;SDS011;49136;47.416;19.402;2023-04-29T08:32:09;16.23;;;8.43;;
63050;SDS011;49136;47.416;19.402;2023-04-29T08:34:35;16.08;;;8.23;;
63050;SDS011;49136;47.416;19.402;2023-04-29T08:37:01;13.73;;;7.63;;
63050;SDS011;49136;47.416;19.402;2023-04-29T08:39:28;19.83;;;7.68;;
63050;SDS011;49136;47.416;19.402;2023-04-29T08:41:58;18.42;;;8.05;;
63050;SDS011;49136;47.416;19.402;2023-04-29T08:44:27;20.30;;;7.60;;
63050;SDS011;49136;47.416;19.402;2023-04-29T08:46:54;21.60;;;8.32;;
63050;SDS011;49136;47.416;19.402;2023-04-29T08:49:19;20.02;;;8.23;;
63050;SDS011;49136;47.416;19.402;2023-04-29T08:51:47;22.35;;;8.00;;
63050;SDS011;49136;47.416;19.402;2023-04-29T08:54:18;19.35;;;8.77;;
63050;SDS011;49136;47.416;19.402;2023-04-29T08:56:44;19.55;;;8.05;;
63050;SDS011;49136;47.416;19.402;2023-04-29T08:59:11;16.50;;;7.63;;
63050;SDS011;49136;47.416;19.402;2023-04-29T09:01:42;16.30;;;8.13;;
63050;SDS011;49136;47.416;19.402;2023-04-29T09:04:11;18.15;;;8.95;;
63050;SDS011;49136;47.416;19.402;2023-04-29T09:06:51;23.95;;;9.73;;
63050;SDS011;49136;47.416;19.402;2023-04-29T09:09:20;26.23;;;9.52;;
63050;SDS011;49136;47.416;19.402;2023-04-29T09:11:46;20.52;;;10.10;;
63050;SDS011;49136;47.416;19.402;2023-04-29T09:14:11;18.30;;;9.80;;
63050;SDS011;49136;47.416;19.402;2023-04-29T09:16:37;20.73;;;9.57;;
63050;SDS011;49136;47.416;19.402;2023-04-29T09:19:03;21.40;;;10.02;;
63050;SDS011;49136;47.416;19.402;2023-04-29T09:21:29;22.67;;;10.00;;
63050;SDS011;49136;47.416;19.402;2023-04-29T09:24:01;19.42;;;9.57;;
63050;SDS011;49136;47.416;19.402;2023-04-29T09:26:48;24.48;;;10.38;;
63050;SDS011;49136;47.416;19.402;2023-04-29T09:29:13;22.20;;;9.45;;
63050;SDS011;49136;47.416;19.402;2023-04-29T09:31:40;50.17;;;15.52;;
63050;SDS011;49136;47.416;19.402;2023-04-29T09:34:06;44.20;;;16.85;;
63050;SDS011;49136;47.416;19.402;2023-04-29T09:39:14;18.95;;;8.52;;
63050;SDS011;49136;47.416;19.402;2023-04-29T09:41:42;18.52;;;9.18;;
63050;SDS011;49136;47.416;19.402;2023-04-29T09:44:24;23.30;;;9.57;;
63050;SDS011;49136;47.416;19.402;2023-04-29T09:46:54;23.40;;;8.45;;
63050;SDS011;49136;47.416;19.402;2023-04-29T09:49:30;24.77;;;9.02;;
63050;SDS011;49136;47.416;19.402;2023-04-29T09:52:09;22.05;;;8.55;;
63050;SDS011;49136;47.416;19.402;2023-04-29T09:54:36;17.75;;;8.68;;
63050;SDS011;49136;47.416;19.402;2023-04-29T09:57:03;24.77;;;9.52;;
63050;SDS011;49136;47.416;19.402;2023-04-29T09:59:35;22.83;;;9.35;;
63050;SDS011;49136;47.416;19.402;2023-04-29T10:02:05;20.45;;;9.93;;
63050;SDS011;49136;47.416;19.402;2023-04-29T10:04:34;17.73;;;9.05;;
63050;SDS011;49136;47.416;19.402;2023-04-29T10:07:01;25.70;;;10.25;;
63050;SDS011;49136;47.416;19.402;2023-04-29T10:09:27;19.30;;;9.07;;
63050;SDS011;49136;47.416;19.402;2023-04-29T10:11:55;24.48;;;8.82;;
63050;SDS011;49136;47.416;19.402;2023-04-29T10:14:26;25.58;;;10.07;;
63050;SDS011;49136;47.416;19.402;2023-04-29T10:19:33;19.55;;;9.48;;
63050;SDS011;49136;47.416;19.402;2023-04-29T10:22:10;20.30;;;9.52;;
63050;SDS011;49136;47.416;19.402;2023-04-29T10:24:40;19.23;;;9.85;;
63050;SDS011;49136;47.416;19.402;2023-04-29T10:27:10;23.15;;;9.70;;
63050;SDS011;49136;47.416;19.402;2023-04-29T10:29:37;15.35;;;8.45;;
63050;SDS011;49136;47.416;19.402;2023-04-29T10:32:06;16.80;;;8.27;;
63050;SDS011;49136;47.416;19.402;2023-04-29T10:34:33;20.33;;;9.23;;
63050;SDS011;49136;47.416;19.402;2023-04-29T10:37:01;15.00;;;8.18;;
63050;SDS011;49136;47.416;19.402;2023-04-29T10:45:26;17.48;;;7.88;;
63050;SDS011;49136;47.416;19.402;2023-04-29T10:50:30;23.13;;;7.78;;
63050;SDS011;49136;47.416;19.402;2023-04-29T10:53:03;17.48;;;8.00;;
63050;SDS011;49136;47.416;19.402;2023-04-29T10:55:29;12.95;;;7.38;;
63050;SDS011;49136;47.416;19.402;2023-04-29T10:57:56;27.88;;;7.22;;
63050;SDS011;49136;47.416;19.402;2023-04-29T11:00:23;11.88;;;6.72;;
63050;SDS011;49136;47.416;19.402;2023-04-29T11:02:54;16.08;;;6.57;;
63050;SDS011;49136;47.416;19.402;2023-04-29T11:05:34;14.02;;;7.07;;
63050;SDS011;49136;47.416;19.402;2023-04-29T11:10:49;19.15;;;7.78;;
63050;SDS011;49136;47.416;19.402;2023-04-29T11:13:20;16.80;;;7.80;;
63050;SDS011;49136;47.416;19.402;2023-04-29T11:16:07;17.88;;;7.32;;
63050;SDS011;49136;47.416;19.402;2023-04-29T11:18:34;17.27;;;7.60;;
63050;SDS011;49136;47.416;19.402;2023-04-29T11:23:33;18.45;;;8.32;;
63050;SDS011;49136;47.416;19.402;2023-04-29T11:26:02;17.45;;;8.38;;
63050;SDS011;49136;47.416;19.402;2023-04-29T11:28:29;19.10;;;8.40;;
63050;SDS011;49136;47.416;19.402;2023-04-29T11:30:58;19.13;;;7.88;;
63050;SDS011;49136;47.416;19.402;2023-04-29T11:33:24;17.65;;;8.07;;
63050;SDS011;49136;47.416;19.402;2023-04-29T11:35:54;20.13;;;8.30;;
63050;SDS011;49136;47.416;19.402;2023-04-29T11:38:26;14.50;;;8.05;;
63050;SDS011;49136;47.416;19.402;2023-04-29T11:40:56;16.30;;;7.57;;
63050;SDS011;49136;47.416;19.402;2023-04-29T11:43:23;12.63;;;7.05;;
63050;SDS011;49136;47.416;19.402;2023-04-29T11:45:50;13.27;;;7.90;;
63050;SDS011;49136;47.416;19.402;2023-04-29T11:48:17;14.93;;;7.43;;
63050;SDS011;49136;47.416;19.402;2023-04-29T11:50:52;13.10;;;6.90;;
63050;SDS011;49136;47.416;19.402;2023-04-29T11:53:21;17.48;;;7.93;;
63050;SDS011;49136;47.416;19.402;2023-04-29T11:55:49;14.27;;;7.50;;
63050;SDS011;49136;47.416;19.402;2023-04-29T11:58:17;14.75;;;7.95;;
63050;SDS011;49136;47.416;19.402;2023-04-29T12:00:47;34.55;;;8.70;;
63050;SDS011;49136;47.416;19.402;2023-04-29T12:03:14;15.90;;;7.30;;
63050;SDS011;49136;47.416;19.402;2023-04-29T12:05:47;13.52;;;7.10;;
63050;SDS011;49136;47.416;19.402;2023-04-29T12:08:19;19.02;;;7.80;;
63050;SDS011;49136;47.416;19.402;2023-04-29T12:10:46;19.42;;;8.45;;
63050;SDS011;49136;47.416;19.402;2023-04-29T12:13:12;25.52;;;9.10;;
63050;SDS011;49136;47.416;19.402;2023-04-29T12:15:38;15.75;;;7.18;;
63050;SDS011;49136;47.416;19.402;2023-04-29T12:18:07;16.65;;;7.75;;
63050;SDS011;49136;47.416;19.402;2023-04-29T12:20:33;17.08;;;7.75;;
63050;SDS011;49136;47.416;19.402;2023-04-29T12:23:15;15.57;;;7.95;;
63050;SDS011;49136;47.416;19.402;2023-04-29T12:25:58;15.95;;;7.80;;
63050;SDS011;49136;47.416;19.402;2023-04-29T12:28:24;16.50;;;8.33;;
63050;SDS011;49136;47.416;19.402;2023-04-29T12:30:51;17.42;;;8.25;;
63050;SDS011;49136;47.416;19.402;2023-04-29T12:33:28;18.95;;;7.05;;
63050;SDS011;49136;47.416;19.402;2023-04-29T12:35:54;15.68;;;7.25;;
63050;SDS011;49136;47.416;19.402;2023-04-29T12:40:48;20.95;;;8.32;;
63050;SDS011;49136;47.416;19.402;2023-04-29T12:43:14;15.63;;;7.43;;
63050;SDS011;49136;47.416;19.402;2023-04-29T12:45:40;13.70;;;7.32;;
63050;SDS011;49136;47.416;19.402;2023-04-29T12:48:06;15.05;;;7.38;;
63050;SDS011;49136;47.416;19.402;2023-04-29T12:50:33;11.50;;;7.30;;
63050;SDS011;49136;47.416;19.402;2023-04-29T12:53:01;16.70;;;7.28;;
63050;SDS011;49136;47.416;19.402;2023-04-29T12:55:28;13.73;;;7.40;;
63050;SDS011;49136;47.416;19.402;2023-04-29T12:57:54;14.82;;;6.88;;
63050;SDS011;49136;47.416;19.402;2023-04-29T13:00:20;13.90;;;7.10;;
63050;SDS011;49136;47.416;19.402;2023-04-29T13:02:46;14.73;;;7.35;;
63050;SDS011;49136;47.416;19.402;2023-04-29T13:05:11;17.20;;;6.35;;
63050;SDS011;49136;47.416;19.402;2023-04-29T13:07:37;9.07;;;6.32;;
63050;SDS011;49136;47.416;19.402;2023-04-29T13:10:03;20.77;;;8.10;;
63050;SDS011;49136;47.416;19.402;2023-04-29T13:12:30;17.58;;;6.65;;
63050;SDS011;49136;47.416;19.402;2023-04-29T13:14:56;15.57;;;6.47;;
63050;SDS011;49136;47.416;19.402;2023-04-29T13:17:22;12.85;;;7.93;;
63050;SDS011;49136;47.416;19.402;2023-04-29T13:19:49;11.50;;;7.05;;
63050;SDS011;49136;47.416;19.402;2023-04-29T13:22:16;14.27;;;5.95;;
63050;SDS011;49136;47.416;19.402;2023-04-29T13:24:42;14.60;;;6.82;;
63050;SDS011;49136;47.416;19.402;2023-04-29T13:27:07;18.63;;;6.55;;
63050;SDS011;49136;47.416;19.402;2023-04-29T13:29:34;14.65;;;6.38;;
63050;SDS011;49136;47.416;19.402;2023-04-29T13:31:59;17.27;;;7.10;;
63050;SDS011;49136;47.416;19.402;2023-04-29T13:34:25;13.10;;;6.32;;
63050;SDS011;49136;47.416;19.402;2023-04-29T13:36:50;15.00;;;6.70;;
63050;SDS011;49136;47.416;19.402;2023-04-29T13:39:16;12.98;;;6.93;;
63050;SDS011;49136;47.416;19.402;2023-04-29T13:41:41;11.85;;;5.88;;
63050;SDS011;49136;47.416;19.402;2023-04-29T13:44:07;13.63;;;6.93;;
63050;SDS011;49136;47.416;19.402;2023-04-29T13:46:32;10.63;;;6.43;;
63050;SDS011;49136;47.416;19.402;2023-04-29T13:48:58;11.35;;;6.55;;
63050;SDS011;49136;47.416;19.402;2023-04-29T13:51:23;16.30;;;6.97;;
63050;SDS011;49136;47.416;19.402;2023-04-29T13:53:48;13.88;;;5.97;;
63050;SDS011;49136;47.416;19.402;2023-04-29T13:56:14;13.13;;;6.35;;
63050;SDS011;49136;47.416;19.402;2023-04-29T13:58:40;17.25;;;7.03;;
63050;SDS011;49136;47.416;19.402;2023-04-29T14:01:06;11.75;;;5.60;;
63050;SDS011;49136;47.416;19.402;2023-04-29T14:03:32;11.02;;;5.78;;
63050;SDS011;49136;47.416;19.402;2023-04-29T14:05:57;15.82;;;6.85;;
63050;SDS011;49136;47.416;19.402;2023-04-29T14:08:22;24.05;;;7.32;;
63050;SDS011;49136;47.416;19.402;2023-04-29T14:10:48;12.18;;;6.30;;
63050;SDS011;49136;47.416;19.402;2023-04-29T14:13:13;12.82;;;6.68;;
63050;SDS011;49136;47.416;19.402;2023-04-29T14:15:39;13.32;;;6.68;;
63050;SDS011;49136;47.416;19.402;2023-04-29T14:18:05;15.07;;;5.90;;
63050;SDS011;49136;47.416;19.402;2023-04-29T14:20:33;11.23;;;7.00;;
63050;SDS011;49136;47.416;19.402;2023-04-29T14:22:59;11.05;;;6.55;;
63050;SDS011;49136;47.416;19.402;2023-04-29T14:25:26;12.13;;;6.80;;
63050;SDS011;49136;47.416;19.402;2023-04-29T14:27:52;14.93;;;6.68;;
63050;SDS011;49136;47.416;19.402;2023-04-29T14:30:17;9.57;;;6.68;;
63050;SDS011;49136;47.416;19.402;2023-04-29T14:32:43;16.30;;;6.10;;
63050;SDS011;49136;47.416;19.402;2023-04-29T14:35:08;13.70;;;6.82;;
63050;SDS011;49136;47.416;19.402;2023-04-29T14:37:34;9.13;;;5.88;;
63050;SDS011;49136;47.416;19.402;2023-04-29T14:39:59;12.95;;;6.38;;
63050;SDS011;49136;47.416;19.402;2023-04-29T14:42:25;8.27;;;5.80;;
63050;SDS011;49136;47.416;19.402;2023-04-29T14:44:51;13.57;;;5.65;;
63050;SDS011;49136;47.416;19.402;2023-04-29T14:47:18;15.52;;;6.68;;
63050;SDS011;49136;47.416;19.402;2023-04-29T14:49:43;15.73;;;6.38;;
63050;SDS011;49136;47.416;19.402;2023-04-29T14:52:09;12.02;;;5.90;;